Time;durP1;ratioP1;P1;durP2;ratioP2;P2;SDS_P1;SDS_P2;PMS_P1;PMS_P2;Temp;Humidity;BMP_temperature;BMP_pressure;BME280_temperature;BME280_humidity;BME280_pressure;Samples;Min_cycle;Max_cycle;Signal;HPM_P1;HPM_P2
2020/12/17 00:01:08;;;;;;;40.60;24.98;;;7.00;99.90;;;;;;5114071;28;20020;-83
2020/12/17 00:03:34;;;;;;;44.40;26.40;;;7.00;99.90;;;;;;5114106;28;20023;-83
2020/12/17 00:06:00;;;;;;;44.33;26.10;;;7.00;99.90;;;;;;5112595;28;20020;-83
2020/12/17 00:08:26;;;;;;;46.22;27.10;;;7.00;99.90;;;;;;5113304;28;20375;-82
2020/12/17 00:10:52;;;;;;;47.38;27.35;;;7.10;99.90;;;;;;5113827;28;20023;-80
2020/12/17 00:13:18;;;;;;;43.13;27.00;;;7.10;99.90;;;;;;5113388;28;20046;-83
2020/12/17 00:15:44;;;;;;;41.28;25.23;;;7.10;99.90;;;;;;5113456;28;20387;-82
2020/12/17 00:18:10;;;;;;;39.75;25.40;;;7.10;99.90;;;;;;5114046;28;20020;-81
2020/12/17 00:20:35;;;;;;;44.85;25.27;;;7.10;99.90;;;;;;5112875;28;20027;-82
2020/12/17 00:23:01;;;;;;;39.58;23.92;;;7.10;99.90;;;;;;5101539;28;20026;-82
2020/12/17 00:25:27;;;;;;;37.78;24.10;;;7.10;99.90;;;;;;5110782;28;20020;-82
2020/12/17 00:27:52;;;;;;;43.42;22.88;;;7.10;99.90;;;;;;5115568;28;20040;-83
2020/12/17 00:30:18;;;;;;;36.78;23.38;;;7.10;99.90;;;;;;5114508;28;20016;-74
2020/12/17 00:32:45;;;;;;;35.05;21.15;;;7.10;99.90;;;;;;5097798;28;20024;-74
2020/12/17 00:35:12;;;;;;;33.08;21.45;;;7.00;99.90;;;;;;5095298;28;20012;-74
2020/12/17 00:37:39;;;;;;;30.60;20.58;;;7.00;99.90;;;;;;5106468;28;20028;-74
2020/12/17 00:40:07;;;;;;;36.95;21.25;;;7.00;99.90;;;;;;5108289;28;20099;-74
2020/12/17 00:42:33;;;;;;;38.03;21.90;;;7.00;99.90;;;;;;5095192;28;20028;-75
2020/12/17 00:44:59;;;;;;;40.72;22.65;;;7.00;99.90;;;;;;5113297;28;20039;-74
2020/12/17 00:47:30;;;;;;;37.58;22.55;;;7.00;99.90;;;;;;5115381;28;20479;-74
2020/12/17 00:49:56;;;;;;;39.22;23.63;;;7.00;99.90;;;;;;5115400;28;20031;-74
2020/12/17 00:52:23;;;;;;;42.35;23.83;;;7.00;99.90;;;;;;5114293;28;20493;-75
2020/12/17 00:54:50;;;;;;;37.95;22.80;;;7.00;99.90;;;;;;5114750;28;20023;-74
2020/12/17 00:57:16;;;;;;;34.47;22.52;;;7.00;99.90;;;;;;5113488;28;20023;-75
2020/12/17 00:59:42;;;;;;;34.45;21.92;;;7.00;99.90;;;;;;5114432;28;20439;-74
2020/12/17 01:02:08;;;;;;;43.88;23.63;;;6.90;99.90;;;;;;5102336;28;20117;-74
2020/12/17 01:04:33;;;;;;;37.08;22.55;;;6.90;99.90;;;;;;5108724;28;20613;-74
2020/12/17 01:06:59;;;;;;;36.95;23.13;;;6.80;99.90;;;;;;5114875;28;20063;-74
2020/12/17 01:09:25;;;;;;;45.90;26.13;;;6.80;99.90;;;;;;5114867;28;20466;-75
2020/12/17 01:11:50;;;;;;;42.38;25.17;;;6.80;99.90;;;;;;5115098;28;20077;-74
2020/12/17 01:14:16;;;;;;;44.30;25.25;;;6.80;99.90;;;;;;5114495;28;20020;-74
2020/12/17 01:16:47;;;;;;;42.88;27.48;;;6.80;99.90;;;;;;5114944;28;20059;-74
2020/12/17 01:19:12;;;;;;;42.72;26.77;;;6.80;99.90;;;;;;5113325;28;20080;-74
2020/12/17 01:21:38;;;;;;;41.58;25.35;;;6.80;99.90;;;;;;5113288;28;20027;-74
2020/12/17 01:24:04;;;;;;;40.00;25.23;;;6.80;99.90;;;;;;5114771;28;20072;-74
2020/12/17 01:26:30;;;;;;;42.47;24.10;;;6.80;99.90;;;;;;5114308;28;20027;-75
2020/12/17 01:28:55;;;;;;;37.38;22.83;;;6.70;99.90;;;;;;5114296;28;20122;-75
2020/12/17 01:31:21;;;;;;;32.88;21.15;;;6.70;99.90;;;;;;5113772;28;21128;-74
2020/12/17 01:33:46;;;;;;;44.17;24.95;;;6.60;99.90;;;;;;5112986;28;20023;-74
2020/12/17 01:36:12;;;;;;;51.22;28.95;;;6.50;99.90;;;;;;5114272;28;20059;-74
2020/12/17 01:38:39;;;;;;;48.72;29.67;;;6.50;99.90;;;;;;5093973;28;20055;-74
2020/12/17 01:41:06;;;;;;;45.78;27.75;;;6.50;99.90;;;;;;5092464;28;20123;-74
2020/12/17 01:43:37;;;;;;;48.20;28.10;;;6.60;99.90;;;;;;5100939;28;20031;-74
2020/12/17 01:46:03;;;;;;;47.83;29.55;;;6.60;99.90;;;;;;5114132;28;20027;-74
2020/12/17 01:48:29;;;;;;;51.67;30.48;;;6.60;99.90;;;;;;5113919;28;20016;-74
2020/12/17 01:50:55;;;;;;;51.88;30.92;;;6.60;99.90;;;;;;5112442;28;20031;-74
2020/12/17 01:53:21;;;;;;;51.00;28.90;;;6.60;99.90;;;;;;5114084;28;20051;-74
2020/12/17 01:55:47;;;;;;;51.53;29.98;;;6.60;99.90;;;;;;5112700;28;20027;-75
2020/12/17 01:58:17;;;;;;;46.13;28.25;;;6.60;99.90;;;;;;5111292;28;20027;-75
2020/12/17 02:00:47;;;;;;;43.97;26.25;;;6.70;99.90;;;;;;5113158;28;20470;-75
2020/12/17 02:03:13;;;;;;;40.47;24.52;;;6.70;99.90;;;;;;5113170;28;20008;-75
2020/12/17 02:05:39;;;;;;;45.25;25.10;;;6.70;99.90;;;;;;5112488;28;20035;-75
2020/12/17 02:08:06;;;;;;;44.90;25.73;;;6.70;99.90;;;;;;5112872;28;20023;-75
2020/12/17 02:10:31;;;;;;;39.60;25.33;;;6.80;99.90;;;;;;5111430;28;20027;-75
2020/12/17 02:12:57;;;;;;;45.15;27.02;;;6.80;99.90;;;;;;5112981;28;20024;-75
2020/12/17 02:15:23;;;;;;;39.65;23.52;;;6.80;99.90;;;;;;5113177;28;20444;-74
2020/12/17 02:17:49;;;;;;;37.78;23.20;;;6.90;99.90;;;;;;5113324;28;20681;-74
2020/12/17 02:20:16;;;;;;;34.67;21.77;;;6.90;99.90;;;;;;5113262;28;20026;-74
2020/12/17 02:22:41;;;;;;;31.52;19.58;;;6.90;99.90;;;;;;5112131;28;20020;-74
2020/12/17 02:25:10;;;;;;;30.67;19.40;;;6.90;99.90;;;;;;5113493;28;20040;-74
2020/12/17 02:27:37;;;;;;;30.98;19.48;;;6.90;99.90;;;;;;5111910;28;20112;-75
2020/12/17 02:30:04;;;;;;;26.08;18.05;;;6.90;99.90;;;;;;5113029;28;20034;-74
2020/12/17 02:32:30;;;;;;;30.73;17.88;;;7.00;99.90;;;;;;5101923;28;20111;-74
2020/12/17 02:34:56;;;;;;;25.23;16.33;;;7.00;99.90;;;;;;5091866;28;20492;-75
2020/12/17 02:37:21;;;;;;;29.50;16.25;;;6.90;99.90;;;;;;5109915;28;20023;-75
2020/12/17 02:39:47;;;;;;;28.17;17.70;;;7.00;99.90;;;;;;5113521;28;20020;-74
2020/12/17 02:42:12;;;;;;;25.90;15.57;;;7.00;99.90;;;;;;5113278;28;20028;-74
2020/12/17 02:44:38;;;;;;;24.98;15.80;;;7.00;99.90;;;;;;5112982;28;20035;-74
2020/12/17 02:47:04;;;;;;;23.02;15.63;;;7.00;99.90;;;;;;5113049;28;20483;-74
2020/12/17 02:49:29;;;;;;;26.88;17.35;;;7.00;99.90;;;;;;5113139;28;20544;-74
2020/12/17 02:51:55;;;;;;;24.15;16.73;;;7.00;99.90;;;;;;5112994;28;20056;-74
2020/12/17 02:54:21;;;;;;;27.75;17.45;;;6.90;99.90;;;;;;5112581;28;20053;-74
2020/12/17 02:56:47;;;;;;;30.10;18.40;;;6.90;99.90;;;;;;5111950;28;20412;-74
2020/12/17 02:59:12;;;;;;;32.80;20.08;;;6.90;99.90;;;;;;5112881;28;20027;-74
2020/12/17 03:01:38;;;;;;;28.55;18.85;;;7.00;99.90;;;;;;5107360;28;20114;-75
2020/12/17 03:04:04;;;;;;;25.90;16.95;;;6.90;99.90;;;;;;5113327;28;20032;-74
2020/12/17 03:06:30;;;;;;;26.17;15.65;;;6.90;99.90;;;;;;5111613;28;20085;-75
2020/12/17 03:08:56;;;;;;;22.55;14.25;;;6.90;99.90;;;;;;5113123;28;20020;-74
2020/12/17 03:11:22;;;;;;;23.13;13.77;;;6.90;99.90;;;;;;5112582;28;20114;-74
2020/12/17 03:13:47;;;;;;;23.75;14.52;;;6.90;99.90;;;;;;5113002;28;20016;-74
2020/12/17 03:16:13;;;;;;;25.02;15.10;;;6.90;99.90;;;;;;5111692;28;20031;-74
2020/12/17 03:18:39;;;;;;;19.60;13.32;;;7.00;99.90;;;;;;5112785;28;20084;-74
2020/12/17 03:21:04;;;;;;;19.92;14.23;;;7.00;99.90;;;;;;5112918;28;20027;-74
2020/12/17 03:23:30;;;;;;;27.42;15.93;;;7.00;99.90;;;;;;5112573;28;20175;-74
2020/12/17 03:25:56;;;;;;;26.80;16.80;;;6.90;99.90;;;;;;5112981;28;20034;-74
2020/12/17 03:28:21;;;;;;;22.60;14.38;;;6.90;99.90;;;;;;5110561;28;20525;-74
2020/12/17 03:30:47;;;;;;;20.23;14.05;;;6.90;99.90;;;;;;5111243;28;20031;-74
2020/12/17 03:33:13;;;;;;;17.55;13.25;;;6.90;99.90;;;;;;5097552;28;20028;-74
2020/12/17 03:35:38;;;;;;;20.92;13.65;;;6.90;99.90;;;;;;5111322;28;20058;-75
2020/12/17 03:38:04;;;;;;;21.13;13.35;;;6.90;99.90;;;;;;5112765;28;20016;-74
2020/12/17 03:40:30;;;;;;;17.98;12.93;;;6.90;99.90;;;;;;5111115;28;20049;-74
2020/12/17 03:42:55;;;;;;;19.73;13.02;;;6.90;99.90;;;;;;5111145;28;20084;-74
2020/12/17 03:45:21;;;;;;;18.33;12.60;;;6.80;99.90;;;;;;5112316;28;20498;-74
2020/12/17 03:47:47;;;;;;;25.38;13.25;;;6.80;99.90;;;;;;5112576;28;20032;-74
2020/12/17 03:50:13;;;;;;;18.05;12.63;;;6.90;99.90;;;;;;5111376;28;20506;-74
2020/12/17 03:52:39;;;;;;;21.13;13.48;;;6.90;99.90;;;;;;5112138;28;20086;-74
2020/12/17 03:55:06;;;;;;;19.45;12.93;;;6.90;99.90;;;;;;5113880;28;20028;-74
2020/12/17 03:57:32;;;;;;;19.00;12.95;;;6.90;99.90;;;;;;5116342;28;20038;-74
2020/12/17 03:59:58;;;;;;;20.60;12.90;;;6.90;99.90;;;;;;5116323;28;20111;-74
2020/12/17 04:02:24;;;;;;;18.02;11.93;;;6.80;99.90;;;;;;5114705;28;20491;-74
2020/12/17 04:04:49;;;;;;;16.25;11.70;;;6.80;99.90;;;;;;5116272;28;20030;-75
2020/12/17 04:07:15;;;;;;;19.70;12.75;;;6.80;99.90;;;;;;5114822;28;20084;-75
2020/12/17 04:09:41;;;;;;;19.95;12.95;;;6.80;99.90;;;;;;5115860;28;20054;-74
2020/12/17 04:12:07;;;;;;;15.32;11.40;;;6.80;99.90;;;;;;5116160;28;20039;-74
2020/12/17 04:14:34;;;;;;;20.17;12.70;;;6.80;99.90;;;;;;5115994;27;20032;-74
2020/12/17 04:16:59;;;;;;;20.73;11.93;;;6.90;99.90;;;;;;5115954;28;20083;-74
2020/12/17 04:19:25;;;;;;;18.20;11.32;;;6.90;99.90;;;;;;5114444;28;20416;-74
2020/12/17 04:21:51;;;;;;;18.20;11.98;;;6.80;99.90;;;;;;5115567;28;20031;-74
2020/12/17 04:24:16;;;;;;;14.20;11.27;;;6.80;99.90;;;;;;5115961;28;20027;-75
2020/12/17 04:26:47;;;;;;;21.25;14.10;;;6.80;99.90;;;;;;5115390;28;20071;-74
2020/12/17 04:29:13;;;;;;;21.42;13.88;;;6.80;99.90;;;;;;5115672;28;20112;-75
2020/12/17 04:31:39;;;;;;;17.42;12.27;;;6.80;99.90;;;;;;5107271;28;20368;-74
2020/12/17 04:34:04;;;;;;;18.75;12.57;;;6.80;99.90;;;;;;5104802;28;20536;-74
2020/12/17 04:36:31;;;;;;;17.88;12.88;;;6.80;99.90;;;;;;5095402;28;20356;-74
2020/12/17 04:38:57;;;;;;;20.83;13.48;;;6.80;99.90;;;;;;5095331;28;20024;-74
2020/12/17 04:41:25;;;;;;;23.45;12.55;;;6.80;99.90;;;;;;5095270;28;20030;-74
2020/12/17 04:43:51;;;;;;;19.17;12.50;;;6.80;99.90;;;;;;5100055;28;20058;-74
2020/12/17 04:46:19;;;;;;;21.77;13.57;;;6.80;99.90;;;;;;5113740;28;20020;-74
2020/12/17 04:48:50;;;;;;;23.65;13.43;;;6.80;99.90;;;;;;5115362;28;20155;-74
2020/12/17 04:51:17;;;;;;;22.38;13.38;;;6.80;99.90;;;;;;5113758;28;20112;-74
2020/12/17 04:53:47;;;;;;;19.73;13.38;;;6.80;99.90;;;;;;5114965;28;20442;-74
2020/12/17 04:56:15;;;;;;;18.58;12.63;;;6.70;99.90;;;;;;5115419;28;20016;-74
2020/12/17 04:58:50;;;;;;;18.77;13.00;;;6.70;99.90;;;;;;5115304;28;20027;-74
2020/12/17 05:01:18;;;;;;;19.63;12.05;;;6.70;99.90;;;;;;5113565;28;20115;-74
2020/12/17 05:03:48;;;;;;;23.52;13.73;;;6.70;99.90;;;;;;5115065;28;20551;-75
2020/12/17 05:06:25;;;;;;;20.40;13.50;;;6.70;99.90;;;;;;5112568;28;20024;-74
2020/12/17 05:08:54;;;;;;;22.08;12.80;;;6.70;99.90;;;;;;5114925;28;20028;-74
2020/12/17 05:11:20;;;;;;;19.92;14.05;;;6.80;99.90;;;;;;5113085;28;20035;-74
2020/12/17 05:13:47;;;;;;;24.45;14.77;;;6.70;99.90;;;;;;5113573;28;20073;-74
2020/12/17 05:16:12;;;;;;;19.50;12.88;;;6.80;99.90;;;;;;5113475;28;20024;-74
2020/12/17 05:18:38;;;;;;;20.48;13.60;;;6.80;99.90;;;;;;5113561;28;20122;-74
2020/12/17 05:21:04;;;;;;;22.52;13.90;;;6.80;99.90;;;;;;5114450;28;20031;-74
2020/12/17 05:23:31;;;;;;;18.10;12.93;;;6.80;99.90;;;;;;5114896;28;20462;-75
2020/12/17 05:25:57;;;;;;;18.73;12.88;;;6.80;99.90;;;;;;5113458;28;20023;-74
2020/12/17 05:28:23;;;;;;;16.60;12.30;;;6.80;99.90;;;;;;5114251;28;20051;-74
2020/12/17 05:30:48;;;;;;;18.23;12.60;;;6.80;99.90;;;;;;5114517;28;20032;-74
2020/12/17 05:33:14;;;;;;;17.52;12.85;;;6.80;99.90;;;;;;5113331;28;20024;-75
2020/12/17 05:35:42;;;;;;;17.23;12.20;;;6.80;99.90;;;;;;5114253;28;20031;-74
2020/12/17 05:38:09;;;;;;;20.33;13.40;;;6.90;99.90;;;;;;5114224;28;20111;-74
2020/12/17 05:40:44;;;;;;;20.02;13.48;;;6.90;99.90;;;;;;5114143;28;20031;-74
2020/12/17 05:43:10;;;;;;;23.85;14.82;;;6.80;99.90;;;;;;5114504;28;20024;-74
2020/12/17 05:45:37;;;;;;;20.98;13.93;;;6.90;99.90;;;;;;5112804;28;20024;-74
2020/12/17 05:48:19;;;;;;;20.25;14.20;;;6.80;99.90;;;;;;5114448;28;20023;-74
2020/12/17 05:50:55;;;;;;;22.83;14.02;;;6.90;99.90;;;;;;5113848;28;20036;-74
2020/12/17 05:53:23;;;;;;;21.13;14.13;;;6.90;99.90;;;;;;5113766;28;20026;-74
2020/12/17 05:55:52;;;;;;;21.10;13.90;;;6.90;99.90;;;;;;5114203;28;20106;-74
2020/12/17 05:58:18;;;;;;;20.85;13.50;;;6.90;99.90;;;;;;5112818;28;20024;-74
2020/12/17 06:00:43;;;;;;;19.17;13.05;;;6.90;99.90;;;;;;5112836;28;20030;-74
2020/12/17 06:03:13;;;;;;;21.88;13.55;;;6.90;99.90;;;;;;5093589;28;20111;-75
2020/12/17 06:05:43;;;;;;;20.05;13.27;;;6.90;99.90;;;;;;5091966;28;20028;-74
2020/12/17 06:08:16;;;;;;;20.88;13.32;;;6.90;99.90;;;;;;5093405;28;20032;-74
2020/12/17 06:10:47;;;;;;;19.95;12.82;;;6.90;99.90;;;;;;5105588;28;20432;-74
2020/12/17 06:13:16;;;;;;;20.95;14.02;;;7.00;99.90;;;;;;5112852;28;20391;-74
2020/12/17 06:15:45;;;;;;;20.75;13.63;;;6.90;99.90;;;;;;5113941;28;20069;-74
2020/12/17 06:18:12;;;;;;;21.90;14.00;;;7.00;99.90;;;;;;5113281;28;20016;-74
2020/12/17 06:20:41;;;;;;;21.58;14.10;;;7.00;99.90;;;;;;5112155;28;20361;-74
2020/12/17 06:23:10;;;;;;;20.25;13.40;;;7.00;99.90;;;;;;5113485;28;20612;-74
2020/12/17 06:25:36;;;;;;;22.58;14.20;;;7.00;99.90;;;;;;5111874;28;20023;-74
2020/12/17 06:28:03;;;;;;;18.73;13.60;;;7.00;99.90;;;;;;5110955;28;20487;-74
2020/12/17 06:30:33;;;;;;;18.15;13.00;;;7.10;99.90;;;;;;5112126;28;20031;-74
2020/12/17 06:33:03;;;;;;;21.55;13.77;;;7.10;99.90;;;;;;5093423;28;20028;-74
2020/12/17 06:35:29;;;;;;;21.52;12.98;;;7.10;99.90;;;;;;5091744;28;20028;-75
2020/12/17 06:38:05;;;;;;;21.75;14.30;;;7.10;99.90;;;;;;5104757;28;20024;-74
2020/12/17 06:40:30;;;;;;;21.55;14.30;;;7.10;99.90;;;;;;5113515;28;20076;-74
2020/12/17 06:42:56;;;;;;;20.90;14.15;;;7.10;99.90;;;;;;5113407;28;20023;-74
2020/12/17 06:45:31;;;;;;;18.65;12.60;;;7.10;99.90;;;;;;5113295;28;20028;-74
2020/12/17 06:47:57;;;;;;;22.23;14.32;;;7.10;99.90;;;;;;5112764;28;20444;-74
2020/12/17 06:50:28;;;;;;;20.48;13.68;;;7.10;99.90;;;;;;5111641;28;20035;-74
2020/12/17 06:53:10;;;;;;;24.42;16.10;;;7.10;99.90;;;;;;5111646;28;20028;-74
2020/12/17 06:55:46;;;;;;;26.13;16.75;;;7.10;99.90;;;;;;5111804;28;20550;-74
2020/12/17 06:58:19;;;;;;;27.80;16.48;;;7.10;99.90;;;;;;5111777;28;20051;-74
2020/12/17 07:00:51;;;;;;;26.95;17.08;;;7.20;99.90;;;;;;5112435;28;20487;-74
2020/12/17 07:03:43;;;;;;;30.48;19.65;;;7.20;99.90;;;;;;5112482;28;20016;-74
2020/12/17 07:06:20;;;;;;;31.42;19.83;;;7.20;99.90;;;;;;5111451;28;20363;-75
2020/12/17 07:08:49;;;;;;;32.63;19.83;;;7.10;99.90;;;;;;5112231;28;20020;-74
2020/12/17 07:11:48;;;;;;;31.40;19.25;;;7.10;99.90;;;;;;5111684;28;20031;-74
2020/12/17 07:14:32;;;;;;;31.40;18.60;;;7.20;99.90;;;;;;5112980;28;20027;-74
2020/12/17 07:17:04;;;;;;;29.92;19.52;;;7.20;99.90;;;;;;5111554;28;20027;-74
2020/12/17 07:19:47;;;;;;;30.00;19.95;;;7.20;99.90;;;;;;5111613;28;20024;-74
2020/12/17 07:22:15;;;;;;;29.08;18.55;;;7.20;99.90;;;;;;5111675;28;20426;-74
2020/12/17 07:24:45;;;;;;;30.92;18.77;;;7.20;99.90;;;;;;5111677;28;20051;-74
2020/12/17 07:27:17;;;;;;;28.20;16.83;;;7.20;99.90;;;;;;5111282;28;20035;-74
2020/12/17 07:30:04;;;;;;;34.17;19.35;;;7.20;99.90;;;;;;5113331;28;20032;-74
2020/12/17 07:32:36;;;;;;;30.42;20.05;;;7.20;99.90;;;;;;5115406;28;20073;-74
2020/12/17 07:35:08;;;;;;;32.38;20.85;;;7.20;99.90;;;;;;5116699;28;20019;-75
2020/12/17 07:37:54;;;;;;;40.92;24.52;;;7.30;99.90;;;;;;5114561;28;20039;-75
2020/12/17 07:40:29;;;;;;;77.65;37.38;;;7.30;99.90;;;;;;5115384;28;20032;-74
2020/12/17 07:43:14;;;;;;;77.70;39.95;;;7.30;99.90;;;;;;5115448;28;20020;-74
2020/12/17 07:45:40;;;;;;;74.07;41.08;;;7.30;99.90;;;;;;5115120;28;20023;-74
2020/12/17 07:48:34;;;;;;;85.53;40.80;;;7.30;99.90;;;;;;5114976;28;20038;-74
2020/12/17 07:51:20;;;;;;;90.72;45.45;;;7.40;99.90;;;;;;5114359;28;20128;-74
2020/12/17 07:53:50;;;;;;;92.93;46.88;;;7.30;99.90;;;;;;5085071;28;20036;-74
2020/12/17 07:56:17;;;;;;;85.97;46.25;;;7.40;99.90;;;;;;5099424;28;20031;-74
2020/12/17 07:58:43;;;;;;;93.95;47.22;;;7.40;99.90;;;;;;5098837;28;20103;-74
2020/12/17 08:01:11;;;;;;;89.80;47.03;;;7.40;99.90;;;;;;5102651;28;20581;-74
2020/12/17 08:03:53;;;;;;;91.90;45.90;;;7.40;99.90;;;;;;5101877;28;21052;-74
2020/12/17 08:06:20;;;;;;;81.78;44.33;;;7.40;99.90;;;;;;5102251;28;20032;-74
2020/12/17 08:08:47;;;;;;;88.32;42.08;;;7.40;99.90;;;;;;5101597;28;20526;-74
2020/12/17 08:11:13;;;;;;;85.60;43.17;;;7.40;99.90;;;;;;5113703;27;20111;-74
2020/12/17 08:13:39;;;;;;;84.32;41.35;;;7.40;99.90;;;;;;5103931;28;20110;-74
2020/12/17 08:16:06;;;;;;;80.78;41.95;;;7.40;99.90;;;;;;5103806;28;20016;-74
2020/12/17 08:18:36;;;;;;;89.68;44.60;;;7.40;99.90;;;;;;5102445;28;20507;-74
2020/12/17 08:21:10;;;;;;;83.03;43.67;;;7.40;99.90;;;;;;5108996;28;20020;-74
2020/12/17 08:23:41;;;;;;;91.95;44.58;;;7.50;99.90;;;;;;5109830;28;20103;-74
2020/12/17 08:26:09;;;;;;;87.55;41.50;;;7.50;99.90;;;;;;5106469;28;20111;-74
2020/12/17 08:28:37;;;;;;;95.50;48.88;;;7.50;99.90;;;;;;5107944;28;20403;-74
2020/12/17 08:31:15;;;;;;;98.20;49.95;;;7.50;99.90;;;;;;5101415;28;20020;-74
2020/12/17 08:33:42;;;;;;;107.68;50.15;;;7.50;99.90;;;;;;5102125;28;20026;-75
2020/12/17 08:36:10;;;;;;;96.43;48.22;;;7.50;99.90;;;;;;5092469;28;20028;-74
2020/12/17 08:38:36;;;;;;;46.47;25.05;;;7.50;99.90;;;;;;5105127;28;20012;-74
2020/12/17 08:41:04;;;;;;;86.43;44.90;;;7.80;99.90;;;;;;5095020;28;20016;-74
2020/12/17 08:43:47;;;;;;;99.30;47.60;;;7.80;99.90;;;;;;5100692;28;20030;-73
2020/12/17 08:46:17;;;;;;;87.45;45.40;;;7.80;99.90;;;;;;5096237;28;20081;-73
2020/12/17 08:48:46;;;;;;;89.85;46.47;;;7.80;99.90;;;;;;5111511;28;20047;-73
2020/12/17 08:51:17;;;;;;;95.80;49.08;;;7.80;99.90;;;;;;5109592;28;20026;-73
2020/12/17 08:53:44;;;;;;;87.55;43.60;;;7.80;99.90;;;;;;5099093;28;20047;-73
2020/12/17 08:56:17;;;;;;;83.05;44.72;;;7.80;99.90;;;;;;5105165;28;20027;-73
2020/12/17 08:58:54;;;;;;;80.88;41.03;;;7.80;99.90;;;;;;5101382;28;20403;-73
2020/12/17 09:01:27;;;;;;;78.00;38.90;;;7.90;99.90;;;;;;5100367;28;20043;-73
2020/12/17 09:03:54;;;;;;;69.20;38.80;;;7.90;99.90;;;;;;5111233;27;20024;-73
2020/12/17 09:06:25;;;;;;;68.60;36.97;;;8.00;99.90;;;;;;5098329;28;20044;-73
2020/12/17 09:08:51;;;;;;;59.83;35.38;;;8.10;99.90;;;;;;5099962;28;20024;-73
2020/12/17 09:11:33;;;;;;;66.78;34.63;;;8.20;99.90;;;;;;5110187;28;20097;-73
2020/12/17 09:14:03;;;;;;;;;;;8.20;99.90;;;;;;5107966;28;20437;-73
2020/12/17 09:16:31;;;;;;;57.85;32.03;;;8.30;99.90;;;;;;5096346;28;19914;-73
2020/12/17 09:18:59;;;;;;;65.63;36.75;;;8.30;99.90;;;;;;5099702;28;20119;-73
2020/12/17 09:21:25;;;;;;;67.07;35.58;;;8.30;99.90;;;;;;5104049;28;20455;-73
2020/12/17 09:23:56;;;;;;;75.63;39.17;;;8.30;99.90;;;;;;5094622;28;20028;-81
2020/12/17 09:26:22;;;;;;;73.20;42.40;;;8.30;99.90;;;;;;5099487;28;20028;-81
2020/12/17 09:28:52;;;;;;;82.32;43.03;;;8.40;99.90;;;;;;5104856;28;20055;-81
2020/12/17 09:31:22;;;;;;;81.65;43.63;;;8.40;99.90;;;;;;5110819;28;20031;-80
2020/12/17 09:33:48;;;;;;;76.35;42.83;;;8.40;99.90;;;;;;5108004;27;20024;-81
2020/12/17 09:36:18;;;;;;;81.85;43.83;;;8.40;99.90;;;;;;5092554;28;20468;-81
2020/12/17 09:38:43;;;;;;;80.70;44.97;;;8.40;99.90;;;;;;5101006;28;20027;-80
2020/12/17 09:41:09;;;;;;;88.07;46.95;;;8.30;99.90;;;;;;5102259;28;20391;-81
2020/12/17 09:43:46;;;;;;;92.28;48.50;;;8.40;99.90;;;;;;5109332;28;20114;-81
2020/12/17 09:46:12;;;;;;;93.93;45.28;;;8.40;99.90;;;;;;5109653;28;20020;-81
2020/12/17 09:48:37;;;;;;;98.75;47.63;;;8.40;99.90;;;;;;5108509;28;20395;-80
2020/12/17 09:51:06;;;;;;;95.78;48.92;;;8.50;99.90;;;;;;5110624;28;20083;-81
2020/12/17 09:53:34;;;;;;;87.78;49.03;;;8.50;99.90;;;;;;5105229;28;20032;-81
2020/12/17 09:56:00;;;;;;;90.07;48.67;;;8.40;99.90;;;;;;5113560;28;20023;-81
2020/12/17 09:58:25;;;;;;;91.57;48.65;;;8.50;99.90;;;;;;5096001;28;20107;-80
2020/12/17 10:00:51;;;;;;;86.18;46.28;;;8.50;99.90;;;;;;5101770;28;20110;-81
2020/12/17 10:03:17;;;;;;;82.57;46.72;;;8.50;99.90;;;;;;5107335;28;20475;-81
2020/12/17 10:05:43;;;;;;;79.55;43.90;;;8.50;99.90;;;;;;5095875;28;20028;-81
2020/12/17 10:08:08;;;;;;;83.25;44.38;;;8.50;99.90;;;;;;5109354;28;20533;-81
2020/12/17 10:10:35;;;;;;;90.70;43.10;;;8.50;99.90;;;;;;5102417;28;20028;-81
2020/12/17 10:13:02;;;;;;;77.30;42.22;;;8.60;99.90;;;;;;5101535;28;20023;-81
2020/12/17 10:15:31;;;;;;;78.18;44.00;;;8.60;99.90;;;;;;5101649;28;20021;-82
2020/12/17 10:17:56;;;;;;;82.55;44.55;;;8.60;99.90;;;;;;5106780;28;20032;-81
2020/12/17 10:20:23;;;;;;;75.57;42.42;;;8.60;99.90;;;;;;5102311;28;20024;-81
2020/12/17 10:22:49;;;;;;;71.53;40.78;;;8.60;99.90;;;;;;5104138;28;20032;-81
2020/12/17 10:25:16;;;;;;;67.78;39.72;;;8.70;99.90;;;;;;5108060;28;20028;-81
2020/12/17 10:27:42;;;;;;;71.30;40.33;;;8.70;99.90;;;;;;5109297;28;20054;-81
2020/12/17 10:30:09;;;;;;;79.80;43.53;;;8.80;99.90;;;;;;5099117;28;20032;-81
2020/12/17 10:32:35;;;;;;;77.97;44.20;;;8.80;99.90;;;;;;5105995;28;20054;-81
2020/12/17 10:35:01;;;;;;;78.10;43.05;;;8.90;99.90;;;;;;5107421;28;20060;-81
2020/12/17 10:37:27;;;;;;;72.85;41.47;;;8.90;99.90;;;;;;5110769;28;20534;-81
2020/12/17 10:39:54;;;;;;;80.03;42.65;;;8.90;99.90;;;;;;5105135;28;20106;-81
2020/12/17 10:42:20;;;;;;;84.20;42.15;;;8.90;99.90;;;;;;5112202;28;20030;-81
2020/12/17 10:44:47;;;;;;;70.00;39.65;;;8.90;99.90;;;;;;5102446;28;20560;-81
2020/12/17 10:47:13;;;;;;;72.50;39.38;;;9.00;99.90;;;;;;5105167;28;20384;-81
2020/12/17 10:49:38;;;;;;;69.78;37.13;;;9.00;99.90;;;;;;5103022;28;20031;-81
2020/12/17 10:52:05;;;;;;;63.67;37.33;;;9.00;99.90;;;;;;5109998;28;20028;-80
2020/12/17 10:54:30;;;;;;;74.65;40.13;;;9.00;99.90;;;;;;5104164;28;20027;-81
2020/12/17 10:56:56;;;;;;;67.47;36.80;;;9.10;99.90;;;;;;5111914;28;20644;-81
2020/12/17 10:59:21;;;;;;;63.53;35.83;;;9.10;99.90;;;;;;5103786;28;20023;-81
2020/12/17 11:01:47;;;;;;;68.80;36.40;;;9.10;99.90;;;;;;5109020;28;20083;-81
2020/12/17 11:04:13;;;;;;;60.30;35.30;;;9.10;99.90;;;;;;5098435;28;20570;-81
2020/12/17 11:06:39;;;;;;;71.95;34.85;;;9.20;99.90;;;;;;5105039;28;20035;-81
2020/12/17 11:09:04;;;;;;;62.70;34.08;;;9.10;99.90;;;;;;5113171;28;20084;-80
2020/12/17 11:11:30;;;;;;;58.50;32.17;;;9.10;99.90;;;;;;5096730;28;20057;-81
2020/12/17 11:13:56;;;;;;;56.05;31.95;;;9.20;99.90;;;;;;5104668;28;20065;-81
2020/12/17 11:16:21;;;;;;;52.25;31.23;;;9.20;99.90;;;;;;5106406;28;20074;-80
2020/12/17 11:18:47;;;;;;;52.38;30.58;;;9.20;99.90;;;;;;5107632;28;20020;-80
2020/12/17 11:21:19;;;;;;;52.05;29.90;;;9.20;99.90;;;;;;5097579;28;20020;-81
2020/12/17 11:23:45;;;;;;;;;;;9.10;99.90;;;;;;5115931;28;20023;-81
2020/12/17 11:26:10;;;;;;;50.95;28.60;;;9.10;99.90;;;;;;5104541;28;19995;-80
2020/12/17 11:28:36;;;;;;;47.53;26.50;;;9.10;99.90;;;;;;5103020;28;20422;-80
2020/12/17 11:31:02;;;;;;;43.65;27.23;;;9.20;99.90;;;;;;5114861;28;20023;-79
2020/12/17 11:33:27;;;;;;;47.08;25.88;;;9.20;99.90;;;;;;5104999;28;20025;-80
2020/12/17 11:35:53;;;;;;;46.83;25.33;;;9.20;99.90;;;;;;5096529;28;20020;-80
2020/12/17 11:38:19;;;;;;;44.55;25.35;;;9.20;99.90;;;;;;5097719;28;20501;-79
2020/12/17 11:40:45;;;;;;;45.13;26.15;;;9.20;99.90;;;;;;5114518;28;20082;-81
2020/12/17 11:43:10;;;;;;;42.38;26.48;;;9.30;99.90;;;;;;5110334;28;20028;-80
2020/12/17 11:45:36;;;;;;;43.67;25.20;;;9.20;99.90;;;;;;5097274;28;20161;-80
2020/12/17 11:48:02;;;;;;;43.80;26.10;;;9.20;99.90;;;;;;5106511;28;20023;-80
2020/12/17 11:50:27;;;;;;;47.65;27.20;;;9.20;99.90;;;;;;5115147;28;20024;-80
2020/12/17 11:52:53;;;;;;;46.40;27.25;;;9.30;99.90;;;;;;5107647;27;20107;-80
2020/12/17 11:55:19;;;;;;;46.50;27.40;;;9.30;99.90;;;;;;5104625;28;20034;-80
2020/12/17 11:57:48;;;;;;;47.35;27.50;;;9.30;99.90;;;;;;5100282;28;20140;-79
2020/12/17 12:00:15;;;;;;;47.47;27.52;;;9.30;99.90;;;;;;5107911;28;20051;-81
2020/12/17 12:02:41;;;;;;;47.35;27.13;;;9.30;99.90;;;;;;5111938;28;20023;-80
2020/12/17 12:05:08;;;;;;;49.78;27.88;;;9.30;99.90;;;;;;5108887;28;20034;-80
2020/12/17 12:07:34;;;;;;;50.50;26.20;;;9.30;99.90;;;;;;5114837;28;20098;-80
2020/12/17 12:10:06;;;;;;;45.15;26.20;;;9.30;99.90;;;;;;5113125;28;20024;-80
2020/12/17 12:12:31;;;;;;;53.08;28.38;;;9.40;99.90;;;;;;5115476;28;20077;-80
2020/12/17 12:14:57;;;;;;;53.13;27.63;;;9.40;99.90;;;;;;5099595;28;20024;-81
2020/12/17 12:17:23;;;;;;;47.30;27.55;;;9.40;99.90;;;;;;5112344;28;20475;-81
2020/12/17 12:19:48;;;;;;;46.38;27.10;;;9.50;99.90;;;;;;5107338;28;20027;-81
2020/12/17 12:22:14;;;;;;;44.47;26.40;;;9.50;99.90;;;;;;5114668;28;20376;-81
2020/12/17 12:24:40;;;;;;;42.85;26.38;;;9.50;99.90;;;;;;5115055;28;20035;-81
2020/12/17 12:27:06;;;;;;;42.28;27.13;;;9.50;99.90;;;;;;5110715;28;20047;-81
2020/12/17 12:29:31;;;;;;;45.10;26.77;;;9.60;99.90;;;;;;5106536;28;20028;-80
2020/12/17 12:31:57;;;;;;;51.92;28.05;;;9.60;99.90;;;;;;5106035;28;20088;-80
2020/12/17 12:34:25;;;;;;;48.45;27.88;;;9.60;99.90;;;;;;5106433;28;20028;-80
2020/12/17 12:36:54;;;;;;;46.15;27.45;;;9.60;99.90;;;;;;5106228;28;20003;-81
2020/12/17 12:39:20;;;;;;;54.50;30.95;;;9.60;99.90;;;;;;5114124;28;20160;-81
2020/12/17 12:41:50;;;;;;;56.83;30.98;;;9.60;99.90;;;;;;5098314;28;20035;-80